»·PEaware :: N902SQ KSJC-KRBG

N902SQ :: KSJC-KRBG

FLIGHT INFORMATION

Flight Status: Arrived
Operator: Privately registered:
United States
More flights under this callsign
Pilot: Gabor H. (24209)
Aircraft: SOCATA TBM-900
(TBM9)
More flights by this aircraft type
Origin: KSJC Mineta San Jose Intl
United States
Destination: KRBG Roseburg Regl
United States
More flights between these airports :: More routes between these airports
Route: SUNOL1 SUNOL V334 SAC RBL J1 OED V448 RBG TALEM T263 EROWY
File this flight plan on PilotEdge
Remarks:
Altitude:
(Current/Filed)
26,000ft
Speed:
(Current/Filed)
310kts
Departed: 24-Oct-23 01:22 PM
Arrived: 24-Oct-23 02:56 PM
Distance/Time
Traveled:
358nm/1:33
Distance/Time
To Go:
Arrived

Flight Plot

Page will automatically refresh every two minutes.

Flight plan parsing failed; only flown route is shown


Map Options




Map Legend


Flown Route
Filed Route
Departure Airport
Arrival Airport
Navaid (VOR, NDB)
Fix

Horizontal Profiles

Position Reports

Time Latitude Longitude Heading Altitude Ground
Speed
24-Oct-23 12:48 37.357799 -121.929730 226 65ft 0kts
24-Oct-23 12:49 37.357799 -121.929730 226 65ft 0kts
24-Oct-23 12:50 37.357799 -121.929730 226 65ft 0kts
24-Oct-23 12:51 37.357799 -121.929730 226 65ft 0kts
24-Oct-23 12:52 37.357799 -121.929730 226 65ft 0kts
24-Oct-23 12:53 37.357799 -121.929730 226 65ft 0kts
24-Oct-23 12:54 37.357799 -121.929730 226 65ft 0kts
24-Oct-23 12:55 37.357799 -121.929730 226 65ft 0kts
24-Oct-23 12:56 37.357798 -121.929730 226 65ft 0kts
24-Oct-23 12:57 37.357798 -121.929730 226 65ft 0kts
24-Oct-23 12:58 37.357798 -121.929730 226 65ft 0kts
24-Oct-23 12:59 37.357798 -121.929730 226 65ft 0kts
24-Oct-23 13:00 37.357798 -121.929730 226 65ft 0kts
24-Oct-23 13:01 37.357798 -121.929730 226 65ft 0kts
24-Oct-23 13:02 37.357798 -121.929730 226 65ft 0kts
24-Oct-23 13:03 37.357798 -121.929730 226 65ft 0kts
24-Oct-23 13:04 37.357798 -121.929730 226 65ft 0kts
24-Oct-23 13:05 37.357798 -121.929730 226 65ft 0kts
24-Oct-23 13:06 37.357798 -121.929730 226 65ft 0kts
24-Oct-23 13:07 37.357798 -121.929730 226 65ft 0kts
24-Oct-23 13:08 37.357798 -121.929730 226 65ft 0kts
24-Oct-23 13:09 37.357798 -121.929730 226 65ft 0kts
24-Oct-23 13:10 37.357798 -121.929730 226 65ft 0kts
24-Oct-23 13:11 37.357798 -121.929730 226 65ft 0kts
24-Oct-23 13:12 37.357798 -121.929730 226 65ft 0kts
24-Oct-23 13:13 37.357798 -121.929730 226 65ft 0kts
24-Oct-23 13:14 37.357798 -121.929730 226 65ft 0kts
24-Oct-23 13:15 37.357798 -121.929730 226 65ft 0kts
24-Oct-23 13:16 37.357405 -121.929649 118 65ft 11kts
24-Oct-23 13:17 37.356249 -121.927002 123 65ft 14kts
24-Oct-23 13:18 37.354252 -121.922454 138 65ft 24kts
24-Oct-23 13:19 37.352216 -121.919880 78 65ft 0kts
24-Oct-23 13:20 37.352338 -121.919521 56 65ft 10kts
24-Oct-23 13:21 37.368368 -121.936139 320 790ft 138kts
24-Oct-23 13:22 37.398976 -121.969450 326 3156ft 158kts
24-Oct-23 13:23 37.431935 -121.939941 53 5022ft 182kts
24-Oct-23 13:24 37.467943 -121.890782 22 5117ft 195kts
24-Oct-23 13:25 37.515359 -121.863311 22 7118ft 188kts
24-Oct-23 13:26 37.562528 -121.835595 23 8974ft 190kts
24-Oct-23 13:27 37.619715 -121.805712 11 9003ft 243kts
24-Oct-23 13:28 37.685034 -121.786002 12 9862ft 218kts
24-Oct-23 13:29 37.736679 -121.770177 10 12705ft 176kts
24-Oct-23 13:30 37.781509 -121.756416 8 15632ft 161kts
24-Oct-23 13:31 37.823989 -121.743373 5 18595ft 154kts
24-Oct-23 13:32 37.864771 -121.730821 2 21010ft 153kts
24-Oct-23 13:33 37.905832 -121.719737 341 23777ft 144kts
24-Oct-23 13:34 37.945217 -121.728240 341 25955ft 171kts
24-Oct-23 13:36 38.002891 -121.741333 342 25931ft 238kts
24-Oct-23 13:37 38.071204 -121.756950 343 25911ft 256kts
24-Oct-23 13:38 38.141522 -121.773089 343 25917ft 262kts
24-Oct-23 13:39 38.213644 -121.789688 343 25914ft 264kts
24-Oct-23 13:40 38.285846 -121.806349 343 25916ft 264kts
24-Oct-23 13:41 38.358149 -121.823071 343 25923ft 263kts
24-Oct-23 13:42 38.429950 -121.839712 343 25925ft 263kts
24-Oct-23 13:43 38.502015 -121.856440 343 25922ft 264kts
24-Oct-23 13:44 38.574237 -121.873247 343 25917ft 263kts
24-Oct-23 13:45 38.646248 -121.890039 343 25916ft 263kts
24-Oct-23 13:46 38.718134 -121.906834 343 25915ft 263kts
24-Oct-23 13:47 38.790022 -121.923662 343 25915ft 262kts
24-Oct-23 13:48 38.861757 -121.940492 343 25914ft 262kts
24-Oct-23 13:49 38.933393 -121.957334 342 25911ft 262kts
24-Oct-23 13:50 39.005146 -121.974244 342 25906ft 262kts
24-Oct-23 13:51 39.076773 -121.991146 342 25902ft 261kts
24-Oct-23 13:52 39.145757 -122.007459 342 25912ft 263kts
24-Oct-23 13:53 39.218181 -122.024633 342 25911ft 264kts
24-Oct-23 13:54 39.290328 -122.041778 341 25917ft 264kts
24-Oct-23 13:55 39.362604 -122.058980 341 25923ft 263kts
24-Oct-23 13:56 39.434457 -122.076112 341 25924ft 263kts
24-Oct-23 13:57 39.506637 -122.093378 341 25926ft 263kts
24-Oct-23 13:58 39.578429 -122.110564 341 25925ft 263kts
24-Oct-23 13:59 39.650470 -122.127856 341 25923ft 262kts
24-Oct-23 14:00 39.722172 -122.145124 341 25926ft 262kts
24-Oct-23 14:01 39.793842 -122.162389 341 25921ft 262kts
24-Oct-23 14:02 39.865582 -122.179719 341 25916ft 262kts
24-Oct-23 14:03 39.937319 -122.197094 341 25902ft 262kts
24-Oct-23 14:04 40.009074 -122.214504 341 25890ft 262kts
24-Oct-23 14:05 40.080635 -122.231906 341 25892ft 261kts
24-Oct-23 14:05 40.134772 -122.246181 340 25900ft 261kts
24-Oct-23 14:06 40.206292 -122.265803 339 25897ft 262kts
24-Oct-23 14:07 40.277612 -122.285418 339 25895ft 262kts
24-Oct-23 14:09 40.360744 -122.308345 339 25884ft 261kts
24-Oct-23 14:09 40.419800 -122.324652 339 25880ft 261kts
24-Oct-23 14:10 40.491205 -122.344428 339 25877ft 261kts
24-Oct-23 14:11 40.562434 -122.364167 339 25866ft 262kts
24-Oct-23 14:12 40.633736 -122.384012 339 25856ft 261kts
24-Oct-23 14:13 40.704984 -122.403862 339 25856ft 261kts
24-Oct-23 14:14 40.775960 -122.423674 339 25853ft 261kts
24-Oct-23 14:15 40.846741 -122.443493 339 25936ft 259kts
24-Oct-23 14:16 40.917667 -122.463380 338 25937ft 261kts
24-Oct-23 14:17 40.988782 -122.483381 338 25935ft 261kts
24-Oct-23 14:18 41.059843 -122.503395 338 25934ft 261kts
24-Oct-23 14:19 41.125537 -122.521945 338 25942ft 261kts
24-Oct-23 14:20 41.197198 -122.542223 338 25941ft 262kts
24-Oct-23 14:21 41.268570 -122.562463 338 25940ft 262kts
24-Oct-23 14:22 41.339792 -122.582706 338 25905ft 263kts
24-Oct-23 14:23 41.413925 -122.603868 338 24864ft 278kts
24-Oct-23 14:24 41.490046 -122.625577 339 23859ft 280kts
24-Oct-23 14:25 41.566972 -122.647615 339 22861ft 284kts
24-Oct-23 14:26 41.642901 -122.669383 339 21902ft 283kts
24-Oct-23 14:27 41.720165 -122.691612 340 20908ft 285kts
24-Oct-23 14:28 41.797964 -122.714045 340 19973ft 282kts
24-Oct-23 14:29 41.872578 -122.743799 334 19004ft 280kts
24-Oct-23 14:30 41.946020 -122.779563 334 18218ft 277kts
24-Oct-23 14:31 42.018125 -122.814795 334 17715ft 273kts
24-Oct-23 14:32 42.089101 -122.849656 334 17208ft 270kts
24-Oct-23 14:33 42.155175 -122.885188 320 16728ft 263kts
24-Oct-23 14:34 42.215329 -122.941767 320 16242ft 263kts
24-Oct-23 14:35 42.275094 -122.997663 320 15997ft 256kts
24-Oct-23 14:36 42.333142 -123.052067 320 16006ft 252kts
24-Oct-23 14:37 42.391623 -123.107014 320 15523ft 259kts
24-Oct-23 14:38 42.451436 -123.163335 320 14726ft 265kts
24-Oct-23 14:39 42.511878 -123.220370 320 13781ft 263kts
24-Oct-23 14:40 42.572505 -123.277760 319 12843ft 267kts
24-Oct-23 14:41 42.633116 -123.335175 320 11881ft 262kts
24-Oct-23 14:42 42.692546 -123.391742 321 10975ft 261kts
24-Oct-23 14:43 42.752334 -123.448721 322 10062ft 263kts
24-Oct-23 14:44 42.810353 -123.504083 322 9996ft 249kts
24-Oct-23 14:45 42.875659 -123.527189 4 9349ft 271kts
24-Oct-23 14:46 42.951149 -123.515929 4 7883ft 273kts
24-Oct-23 14:47 43.022526 -123.505540 5 6211ft 231kts
24-Oct-23 14:48 43.056380 -123.453430 91 5041ft 213kts
24-Oct-23 14:49 43.056374 -123.377684 87 3700ft 179kts
24-Oct-23 14:50 43.093406 -123.355794 0 3303ft 168kts
24-Oct-23 14:51 43.138771 -123.355699 359 3251ft 165kts
24-Oct-23 14:52 43.180486 -123.354689 358 2267ft 136kts
24-Oct-23 14:53 43.213637 -123.355389 359 1104ft 90kts
24-Oct-23 14:54 43.236829 -123.355857 0 537ft 46kts
24-Oct-23 14:55 43.237278 -123.356765 180 537ft 10kts
24-Oct-23 14:56 43.235547 -123.357347 7 537ft 2kts
24-Oct-23 14:57 43.235666 -123.357346 359 537ft 0kts
24-Oct-23 14:58 43.235666 -123.357346 359 537ft 0kts
24-Oct-23 14:59 43.235666 -123.357346 359 537ft 0kts
24-Oct-23 15:00 43.235666 -123.357346 359 537ft 0kts
24-Oct-23 15:01 43.235666 -123.357346 359 537ft 0kts
24-Oct-23 15:02 43.235666 -123.357346 359 537ft 0kts

Navigation Log

Ident Type
Flight plan parsing failed, navigation log unavailable